Time;durP1;ratioP1;P1;durP2;ratioP2;P2;SDS_P1;SDS_P2;PMS_P1;PMS_P2;Temp;Humidity;BMP_temperature;BMP_pressure;BME280_temperature;BME280_humidity;BME280_pressure;Samples;Min_cycle;Max_cycle;Signal;HPM_P1;HPM_P2
2021/04/20 00:00:29;;;;;;;55.30;34.13;;;205.10;2252.80;;;;;;5072998;28;20488;-64
2021/04/20 00:02:56;;;;;;;61.15;35.08;;;205.00;2252.80;;;;;;5077725;28;20025;-65
2021/04/20 00:05:22;;;;;;;59.47;35.58;;;204.90;2252.80;;;;;;5072827;28;20020;-66
2021/04/20 00:07:48;;;;;;;60.38;35.95;;;204.90;2252.80;;;;;;5073015;28;20572;-66
2021/04/20 00:10:16;;;;;;;40.22;25.90;;;205.00;2252.80;;;;;;5072261;28;20107;-64
2021/04/20 00:12:43;;;;;;;41.15;27.02;;;205.00;2252.80;;;;;;5072568;28;20512;-65
2021/04/20 00:15:27;;;;;;;40.10;26.88;;;204.90;2252.80;;;;;;5072804;28;20036;-65
2021/04/20 00:17:57;;;;;;;47.97;29.70;;;205.00;2252.80;;;;;;5072631;28;20040;-65
2021/04/20 00:20:23;;;;;;;34.05;22.73;;;205.10;2252.80;;;;;;5072595;28;20029;-65
2021/04/20 00:22:49;;;;;;;36.15;24.02;;;205.10;2252.80;;;;;;5072496;28;20032;-68
2021/04/20 00:25:16;;;;;;;39.15;25.83;;;205.10;2252.80;;;;;;5072434;28;20016;-65
2021/04/20 00:27:43;;;;;;;42.35;27.65;;;205.00;2252.80;;;;;;5072570;28;20115;-66
2021/04/20 00:30:10;;;;;;;36.95;23.90;;;205.10;2252.80;;;;;;5072233;28;20013;-64
2021/04/20 00:32:36;;;;;;;40.20;25.05;;;205.10;2252.80;;;;;;5072067;28;20056;-66
2021/04/20 00:35:02;;;;;;;60.40;33.72;;;205.10;2252.80;;;;;;5072461;28;20013;-65
2021/04/20 00:37:28;;;;;;;36.75;24.42;;;205.10;2252.80;;;;;;5072317;28;20017;-66
2021/04/20 00:39:54;;;;;;;43.17;28.38;;;205.00;2252.80;;;;;;5063638;28;20393;-65
2021/04/20 00:42:20;;;;;;;46.05;29.15;;;205.00;2252.80;;;;;;5072393;28;20037;-65
2021/04/20 00:44:46;;;;;;;33.00;21.98;;;204.90;2252.80;;;;;;5071848;28;20029;-64
2021/04/20 00:47:11;;;;;;;32.25;21.52;;;204.90;2252.80;;;;;;5072107;28;20463;-65
2021/04/20 00:49:37;;;;;;;32.95;22.50;;;204.80;2252.80;;;;;;5071739;28;20048;-64
2021/04/20 00:52:03;;;;;;;33.08;22.20;;;204.80;2252.80;;;;;;5072242;28;20025;-66
2021/04/20 00:54:29;;;;;;;28.90;19.85;;;180.10;2252.80;;;;;;5071754;28;20027;-65
2021/04/20 00:56:55;;;;;;;35.58;22.33;;;180.10;2252.80;;;;;;5071837;28;20025;-65
2021/04/20 00:59:21;;;;;;;36.40;23.35;;;180.10;2252.80;;;;;;5071838;28;20112;-64
2021/04/20 01:01:47;;;;;;;31.92;21.17;;;179.90;2252.80;;;;;;5073247;28;20020;-65
2021/04/20 01:04:15;;;;;;;32.30;21.27;;;179.90;2252.80;;;;;;5071743;28;20030;-65
2021/04/20 01:06:42;;;;;;;35.85;22.85;;;179.90;2252.80;;;;;;5071795;28;20020;-66
2021/04/20 01:09:10;;;;;;;38.22;23.15;;;179.70;2252.80;;;;;;5071399;28;20020;-64
2021/04/20 01:11:37;;;;;;;35.33;22.85;;;179.40;2252.80;;;;;;5071880;28;20440;-64
2021/04/20 01:14:04;;;;;;;34.33;21.88;;;179.40;2252.80;;;;;;5071752;28;20388;-65
2021/04/20 01:16:30;;;;;;;35.85;23.13;;;179.40;2252.80;;;;;;5071509;28;20020;-64
2021/04/20 01:18:56;;;;;;;43.63;26.20;;;179.50;2252.80;;;;;;5071647;28;20461;-64
2021/04/20 01:21:23;;;;;;;41.22;25.55;;;179.30;2252.80;;;;;;5071430;28;20050;-65
2021/04/20 01:23:57;;;;;;;46.50;26.80;;;179.30;2252.80;;;;;;5070877;28;20494;-65
2021/04/20 01:26:27;;;;;;;47.83;27.13;;;179.20;2252.80;;;;;;5071388;28;20108;-65
2021/04/20 01:28:54;;;;;;;42.35;25.10;;;179.20;2252.80;;;;;;5071072;28;20485;-65
2021/04/20 01:31:20;;;;;;;40.63;25.45;;;179.20;2252.80;;;;;;5071399;28;20024;-65
2021/04/20 01:33:46;;;;;;;49.35;29.05;;;179.30;2252.80;;;;;;5071124;28;20020;-65
2021/04/20 01:36:14;;;;;;;43.63;26.90;;;179.30;2252.80;;;;;;5071163;28;20108;-65
2021/04/20 01:38:45;;;;;;;42.90;26.23;;;179.30;2252.80;;;;;;5071130;28;20035;-64
2021/04/20 01:41:11;;;;;;;41.20;25.40;;;179.30;2252.80;;;;;;5060680;28;20035;-64
2021/04/20 01:43:38;;;;;;;38.45;24.70;;;179.40;2252.80;;;;;;5071286;28;20021;-65
2021/04/20 01:46:05;;;;;;;41.38;25.23;;;179.50;2252.80;;;;;;5071232;28;20040;-65
2021/04/20 01:48:31;;;;;;;44.92;27.40;;;179.50;2252.80;;;;;;5070744;28;20074;-65
2021/04/20 01:50:57;;;;;;;45.10;27.90;;;179.50;2252.80;;;;;;5070848;28;20043;-65
2021/04/20 01:53:22;;;;;;;49.13;29.80;;;179.50;2252.80;;;;;;5070951;28;20024;-64
2021/04/20 01:55:48;;;;;;;55.00;31.25;;;179.50;2252.80;;;;;;5071110;28;20032;-65
2021/04/20 01:58:16;;;;;;;48.03;29.02;;;179.40;2252.80;;;;;;5071204;28;20028;-66
2021/04/20 02:00:42;;;;;;;48.40;29.98;;;179.50;2252.80;;;;;;5070766;28;20043;-65
2021/04/20 02:03:09;;;;;;;56.00;33.17;;;179.50;2252.80;;;;;;5083954;28;20024;-65
2021/04/20 02:05:36;;;;;;;56.22;34.05;;;179.50;2252.80;;;;;;5070918;28;20496;-65
2021/04/20 02:08:03;;;;;;;55.50;34.10;;;179.50;2252.80;;;;;;5070644;28;20584;-65
2021/04/20 02:10:29;;;;;;;62.00;39.20;;;179.60;2252.80;;;;;;5070754;28;20039;-65
2021/04/20 02:12:55;;;;;;;58.28;36.50;;;179.60;2252.80;;;;;;5070730;28;20021;-65
2021/04/20 02:15:21;;;;;;;72.35;40.22;;;179.60;2252.80;;;;;;5070944;28;20021;-64
2021/04/20 02:17:48;;;;;;;65.63;38.10;;;179.50;2252.80;;;;;;5070675;28;20104;-65
2021/04/20 02:20:15;;;;;;;57.10;35.08;;;179.50;2252.80;;;;;;5070683;28;20017;-64
2021/04/20 02:22:47;;;;;;;57.95;36.63;;;179.60;2252.80;;;;;;5070932;28;20028;-65
2021/04/20 02:25:16;;;;;;;60.58;37.35;;;179.70;2252.80;;;;;;5069397;28;20024;-65
2021/04/20 02:27:42;;;;;;;64.32;38.28;;;179.60;2252.80;;;;;;5070848;28;20096;-64
2021/04/20 02:30:10;;;;;;;64.57;37.42;;;179.50;2252.80;;;;;;5070150;28;20025;-65
2021/04/20 02:32:38;;;;;;;69.10;36.42;;;179.40;2252.80;;;;;;5070920;28;20480;-65
2021/04/20 02:35:06;;;;;;;82.63;39.60;;;179.30;2252.80;;;;;;5070814;28;20031;-69
2021/04/20 02:37:35;;;;;;;84.35;40.20;;;179.20;2252.80;;;;;;5074692;28;20265;-65
2021/04/20 02:40:12;;;;;;;94.95;42.90;;;179.20;2252.80;;;;;;5082772;28;20034;-65
2021/04/20 02:42:39;;;;;;;145.15;54.28;;;154.50;2252.80;;;;;;5074721;28;20032;-65
2021/04/20 02:45:09;;;;;;;153.00;45.72;;;154.50;2252.80;;;;;;5074624;28;20024;-65
2021/04/20 02:47:35;;;;;;;214.60;50.08;;;154.40;2252.80;;;;;;5074368;28;20016;-65
2021/04/20 02:50:07;;;;;;;233.10;50.28;;;154.50;2252.80;;;;;;5073940;28;20073;-65
2021/04/20 02:52:36;;;;;;;191.82;50.67;;;154.40;2252.80;;;;;;5074475;28;20031;-65
2021/04/20 02:55:05;;;;;;;192.60;57.10;;;154.30;2252.80;;;;;;5074286;28;20020;-64
2021/04/20 02:57:35;;;;;;;183.15;71.32;;;154.40;2252.80;;;;;;5060087;28;20029;-65
2021/04/20 03:00:02;;;;;;;183.30;63.75;;;154.50;2252.80;;;;;;5073867;28;20158;-66
2021/04/20 03:02:29;;;;;;;157.77;50.17;;;179.20;2252.80;;;;;;5087428;28;20074;-65
2021/04/20 03:04:55;;;;;;;118.72;45.40;;;179.30;2252.80;;;;;;5073998;28;20141;-65
2021/04/20 03:07:21;;;;;;;206.82;43.83;;;179.40;2252.80;;;;;;5074066;28;20034;-65
2021/04/20 03:09:47;;;;;;;205.60;45.22;;;179.40;2252.80;;;;;;5073701;28;20020;-64
2021/04/20 03:12:14;;;;;;;283.25;68.85;;;179.30;2252.80;;;;;;5074038;28;20420;-66
2021/04/20 03:14:41;;;;;;;141.68;43.92;;;179.30;2252.80;;;;;;5073884;28;20488;-64
2021/04/20 03:17:07;;;;;;;126.25;42.40;;;179.30;2252.80;;;;;;5074000;28;20027;-65
2021/04/20 03:19:33;;;;;;;132.48;44.20;;;179.30;2252.80;;;;;;5073336;28;20056;-65
2021/04/20 03:21:59;;;;;;;99.05;38.67;;;179.40;2252.80;;;;;;5074180;28;20052;-65
2021/04/20 03:24:31;;;;;;;283.60;50.78;;;179.50;2252.80;;;;;;5073915;28;20081;-65
2021/04/20 03:26:57;;;;;;;121.35;40.45;;;179.40;2252.80;;;;;;5074028;28;20380;-65
2021/04/20 03:29:24;;;;;;;103.70;38.20;;;179.40;2252.80;;;;;;5073470;28;20114;-64
2021/04/20 03:31:50;;;;;;;180.73;42.95;;;179.40;2252.80;;;;;;5073692;28;20055;-65
2021/04/20 03:34:26;;;;;;;247.75;43.88;;;179.40;2252.80;;;;;;5072205;28;20067;-66
2021/04/20 03:37:00;;;;;;;122.13;40.35;;;154.50;2252.80;;;;;;5073436;28;20024;-67
2021/04/20 03:39:27;;;;;;;139.95;45.00;;;154.50;2252.80;;;;;;5079473;28;20059;-65
2021/04/20 03:42:08;;;;;;;113.78;39.65;;;154.50;2252.80;;;;;;5075326;28;20107;-65
2021/04/20 03:44:41;;;;;;;;;;;179.20;2252.80;;;;;;5073840;28;20396;-65
2021/04/20 03:47:13;;;;;;;310.00;85.97;;;154.40;2252.80;;;;;;5072263;28;19908;-65
2021/04/20 03:49:43;;;;;;;116.10;42.60;;;154.50;2252.80;;;;;;5072975;28;20415;-64
2021/04/20 03:52:17;;;;;;;98.88;38.45;;;154.50;2252.80;;;;;;5073135;28;20258;-65
2021/04/20 03:54:45;;;;;;;86.00;40.05;;;154.50;2252.80;;;;;;5073504;28;20032;-65
2021/04/20 03:57:14;;;;;;;154.55;40.95;;;179.20;2252.80;;;;;;5073516;28;20029;-65
2021/04/20 03:59:43;;;;;;;91.45;38.53;;;154.50;2252.80;;;;;;5073031;28;20473;-65
2021/04/20 04:02:11;;;;;;;86.07;38.30;;;154.30;2252.80;;;;;;5085073;28;20067;-65
2021/04/20 04:04:39;;;;;;;104.68;44.05;;;154.30;2252.80;;;;;;5074089;28;20033;-65
2021/04/20 04:07:05;;;;;;;101.90;46.05;;;154.40;2252.80;;;;;;5072941;28;20469;-65
2021/04/20 04:09:33;;;;;;;80.22;38.63;;;154.50;2252.80;;;;;;5072529;28;20020;-68
2021/04/20 04:12:06;;;;;;;140.77;55.95;;;154.50;2252.80;;;;;;5072967;28;20043;-69
2021/04/20 04:14:34;;;;;;;95.05;41.28;;;154.50;2252.80;;;;;;5072523;28;20039;-64
2021/04/20 04:17:04;;;;;;;82.38;40.83;;;154.40;2252.80;;;;;;5073157;28;20020;-65
2021/04/20 04:19:37;;;;;;;67.65;35.17;;;179.20;2252.80;;;;;;5072084;28;20056;-65
2021/04/20 04:22:10;;;;;;;81.72;42.00;;;179.20;2252.80;;;;;;5072783;28;20028;-65
2021/04/20 04:24:41;;;;;;;86.25;40.13;;;179.20;2252.80;;;;;;5072494;28;20039;-69
2021/04/20 04:27:08;;;;;;;76.35;37.78;;;154.50;2252.80;;;;;;5072795;28;20028;-66
2021/04/20 04:29:36;;;;;;;79.82;40.13;;;154.50;2252.80;;;;;;5072050;28;20024;-65
2021/04/20 04:32:03;;;;;;;76.85;40.08;;;154.50;2252.80;;;;;;5072672;28;20103;-64
2021/04/20 04:34:30;;;;;;;94.13;49.50;;;179.20;2252.80;;;;;;5072339;28;20036;-66
2021/04/20 04:36:56;;;;;;;76.60;41.78;;;179.40;2252.80;;;;;;5072538;28;20027;-65
2021/04/20 04:39:22;;;;;;;69.07;37.42;;;179.50;2252.80;;;;;;5077773;28;20062;-68
2021/04/20 04:41:49;;;;;;;66.68;36.65;;;179.50;2252.80;;;;;;5075273;28;20020;-66
2021/04/20 04:44:15;;;;;;;69.40;37.63;;;179.60;2252.80;;;;;;5072263;28;20095;-64
2021/04/20 04:46:41;;;;;;;68.70;37.58;;;179.70;2252.80;;;;;;5072071;28;20112;-64
2021/04/20 04:49:09;;;;;;;71.43;42.22;;;179.80;2252.80;;;;;;5071777;28;20433;-64
2021/04/20 04:51:37;;;;;;;59.65;35.53;;;179.80;2252.80;;;;;;5071961;28;20127;-66
2021/04/20 04:54:13;;;;;;;63.15;37.28;;;179.90;2252.80;;;;;;5071938;28;20043;-65
2021/04/20 04:56:43;;;;;;;63.80;38.70;;;180.00;2252.80;;;;;;5072325;28;20024;-65
2021/04/20 04:59:13;;;;;;;62.15;36.88;;;180.10;2252.80;;;;;;5071665;28;20036;-65
2021/04/20 05:01:41;;;;;;;67.32;38.00;;;204.80;2252.80;;;;;;5076610;28;20039;-65
2021/04/20 05:04:11;;;;;;;70.45;40.88;;;204.80;2252.80;;;;;;5083969;28;20021;-65
2021/04/20 05:06:48;;;;;;;73.13;46.38;;;205.00;2252.80;;;;;;5088141;28;20028;-65
2021/04/20 05:09:16;;;;;;;76.88;42.70;;;205.10;2252.80;;;;;;5081100;28;20040;-65
2021/04/20 05:11:44;;;;;;;82.28;45.88;;;205.20;2252.80;;;;;;5088940;28;20027;-65
2021/04/20 05:14:11;;;;;;;79.43;43.97;;;205.30;2252.80;;;;;;5086042;28;20107;-66
2021/04/20 05:16:40;;;;;;;83.75;45.92;;;205.30;2252.80;;;;;;5066544;28;20024;-66
2021/04/20 05:19:09;;;;;;;74.03;42.55;;;205.30;2252.80;;;;;;5087435;28;20440;-66
2021/04/20 05:21:35;;;;;;;75.95;43.08;;;205.30;2252.80;;;;;;5087289;28;20073;-65
2021/04/20 05:24:01;;;;;;;77.43;41.17;;;205.40;2252.80;;;;;;5088769;28;20499;-65
2021/04/20 05:26:28;;;;;;;95.57;47.15;;;205.40;2252.80;;;;;;5085400;28;20032;-65
2021/04/20 05:28:57;;;;;;;83.50;43.80;;;205.50;2252.80;;;;;;5076913;28;20028;-65
2021/04/20 05:31:23;;;;;;;73.05;41.25;;;205.50;2252.80;;;;;;5089154;28;20391;-65
2021/04/20 05:33:59;;;;;;;79.45;43.85;;;205.50;2252.80;;;;;;5090533;28;20056;-67
2021/04/20 05:36:25;;;;;;;80.15;44.58;;;205.60;2252.80;;;;;;5089095;28;20032;-66
2021/04/20 05:38:52;;;;;;;74.70;42.42;;;205.70;2252.80;;;;;;5057437;28;20504;-66
2021/04/20 05:41:29;;;;;;;78.47;44.03;;;230.40;2252.80;;;;;;5073408;28;20103;-65
2021/04/20 05:43:57;;;;;;;89.38;48.40;;;230.60;2252.80;;;;;;5084895;28;20426;-68
2021/04/20 05:46:23;;;;;;;90.25;49.10;;;230.90;2252.80;;;;;;5079647;28;20082;-66
2021/04/20 05:48:51;;;;;;;72.97;43.55;;;231.10;2252.80;;;;;;5074711;28;20511;-65
2021/04/20 05:51:18;;;;;;;78.32;45.67;;;231.30;2252.80;;;;;;5070937;28;20872;-65
2021/04/20 05:53:45;;;;;;;83.03;47.55;;;256.20;2252.80;;;;;;5071274;28;20036;-65
2021/04/20 05:56:11;;;;;;;73.18;44.78;;;256.40;2252.80;;;;;;5074535;28;20527;-65
2021/04/20 05:58:37;;;;;;;62.42;37.35;;;256.80;2252.80;;;;;;5089305;28;20107;-66
2021/04/20 06:01:04;;;;;;;64.43;39.00;;;281.60;2278.40;;;;;;5087630;28;20026;-66
2021/04/20 06:03:34;;;;;;;68.90;39.33;;;281.70;2278.40;;;;;;5089573;28;20020;-65
2021/04/20 06:06:04;;;;;;;86.47;45.65;;;281.80;2278.40;;;;;;5087548;28;20009;-65
2021/04/20 06:08:35;;;;;;;82.57;44.75;;;281.60;2278.40;;;;;;5089396;28;20111;-65
2021/04/20 06:11:04;;;;;;;74.70;42.83;;;281.70;2278.40;;;;;;5087060;28;20028;-65
2021/04/20 06:13:31;;;;;;;82.47;45.00;;;281.90;2278.40;;;;;;5089540;28;20553;-65
2021/04/20 06:15:57;;;;;;;74.40;43.03;;;282.10;2278.40;;;;;;5087516;28;20066;-66
2021/04/20 06:18:24;;;;;;;69.05;41.35;;;282.40;2278.40;;;;;;5082888;28;20025;-65
2021/04/20 06:20:53;;;;;;;76.35;44.42;;;307.30;2304.00;;;;;;5083334;28;20028;-66
2021/04/20 06:23:19;;;;;;;74.53;43.38;;;282.50;2278.40;;;;;;5088475;28;20027;-66
2021/04/20 06:25:46;;;;;;;70.90;42.85;;;307.30;2304.00;;;;;;5089343;28;20029;-66
2021/04/20 06:28:13;;;;;;;59.83;37.10;;;307.70;2304.00;;;;;;5087341;28;20030;-68
2021/04/20 06:30:39;;;;;;;60.33;38.30;;;307.90;2304.00;;;;;;5089220;28;20017;-65
2021/04/20 06:33:06;;;;;;;65.20;41.45;;;308.10;2304.00;;;;;;5087479;28;20044;-65
2021/04/20 06:35:33;;;;;;;59.03;39.22;;;308.10;2304.00;;;;;;5089340;28;20024;-64
2021/04/20 06:38:00;;;;;;;52.53;36.55;;;332.90;2329.60;;;;;;5088102;28;20387;-65
2021/04/20 06:40:41;;;;;;;47.72;33.45;;;332.90;2329.60;;;;;;5089088;28;20480;-65
2021/04/20 06:43:08;;;;;;;;;;;308.10;2304.00;;;;;;5087873;28;20559;-65
2021/04/20 06:45:45;;;;;;;47.72;31.17;;;308.10;2304.00;;;;;;5089255;28;20379;-65
2021/04/20 06:48:36;;;;;;;43.67;30.65;;;308.10;2304.00;;;;;;5079207;28;20373;-65
2021/04/20 06:51:08;;;;;;;41.13;29.85;;;308.10;2304.00;;;;;;5070204;28;20048;-67
2021/04/20 06:53:39;;;;;;;40.13;28.30;;;307.90;2304.00;;;;;;5070620;28;20540;-65
2021/04/20 06:56:23;;;;;;;;;;;307.90;2304.00;;;;;;5070793;28;20554;-65
2021/04/20 06:59:01;;;;;;;36.70;24.90;;;307.90;2304.00;;;;;;5063988;28;19991;-66
2021/04/20 07:01:46;;;;;;;36.80;25.05;;;307.70;2304.00;;;;;;5072603;28;20052;-65
2021/04/20 07:04:13;;;;;;;36.45;26.13;;;307.60;2304.00;;;;;;5075097;28;20036;-66
2021/04/20 07:06:54;;;;;;;46.00;30.08;;;307.60;2304.00;;;;;;5075231;28;20028;-65
2021/04/20 07:09:25;;;;;;;30.80;21.33;;;307.60;2304.00;;;;;;5075504;28;20025;-65
2021/04/20 07:11:54;;;;;;;28.90;20.45;;;307.60;2304.00;;;;;;5074063;28;20028;-65
2021/04/20 07:14:35;;;;;;;29.80;21.52;;;307.60;2304.00;;;;;;5074477;28;20016;-65
2021/04/20 07:17:18;;;;;;;32.40;22.55;;;307.40;2304.00;;;;;;5073835;28;20419;-65
2021/04/20 07:20:02;;;;;;;32.97;21.85;;;307.30;2304.00;;;;;;5074735;28;20032;-65
2021/04/20 07:23:19;;;;;;;36.38;26.35;;;307.20;2304.00;;;;;;5089995;28;20404;-65
2021/04/20 07:26:22;;;;;;;30.20;21.35;;;307.20;2304.00;;;;;;5078030;28;20020;-65
2021/04/20 07:29:32;;;;;;;34.65;24.08;;;307.20;2304.00;;;;;;5071691;28;20089;-65
2021/04/20 07:32:16;;;;;;;31.08;22.50;;;282.50;2278.40;;;;;;5047132;28;20028;-65
2021/04/20 07:35:05;;;;;;;33.83;23.40;;;282.50;2278.40;;;;;;5062725;28;20021;-65
2021/04/20 07:37:55;;;;;;;30.30;21.73;;;282.50;2278.40;;;;;;5066783;28;20017;-65
2021/04/20 07:40:41;;;;;;;30.37;22.23;;;282.40;2278.40;;;;;;5070817;28;20021;-65
2021/04/20 07:43:11;;;;;;;31.88;23.00;;;282.30;2278.40;;;;;;5056378;28;20049;-65
2021/04/20 07:46:20;;;;;;;36.47;25.67;;;282.20;2278.40;;;;;;5071909;28;20028;-64
2021/04/20 07:49:08;;;;;;;36.80;26.20;;;282.10;2278.40;;;;;;5073920;28;20032;-64
2021/04/20 07:51:48;;;;;;;43.55;28.52;;;282.00;2278.40;;;;;;5073274;28;20490;-64
2021/04/20 07:54:18;;;;;;;39.75;27.10;;;282.00;2278.40;;;;;;5072937;28;20051;-64
2021/04/20 07:56:46;;;;;;;36.88;25.88;;;282.00;2278.40;;;;;;5073341;28;20033;-65
2021/04/20 07:59:18;;;;;;;37.47;26.27;;;281.90;2278.40;;;;;;5072591;28;20025;-65
2021/04/20 08:01:51;;;;;;;37.20;26.88;;;281.90;2278.40;;;;;;5066167;28;20029;-65
2021/04/20 08:04:23;;;;;;;41.40;28.40;;;281.70;2278.40;;;;;;5054972;28;20018;-66
2021/04/20 08:06:53;;;;;;;54.67;35.92;;;281.70;2278.40;;;;;;5053000;28;20104;-68
2021/04/20 08:09:29;;;;;;;54.28;35.72;;;281.80;2278.40;;;;;;5061184;28;20029;-65
2021/04/20 08:12:02;;;;;;;37.03;24.90;;;281.80;2278.40;;;;;;5064398;28;20028;-65
2021/04/20 08:14:47;;;;;;;35.80;24.63;;;281.80;2278.40;;;;;;5075827;28;20178;-66
2021/04/20 08:17:21;;;;;;;32.95;22.10;;;281.80;2278.40;;;;;;5068470;28;20518;-65
2021/04/20 08:19:52;;;;;;;28.02;19.60;;;281.70;2278.40;;;;;;5070208;28;20024;-65
2021/04/20 08:22:19;;;;;;;41.95;28.30;;;281.70;2278.40;;;;;;5074782;28;20027;-66
2021/04/20 08:25:07;;;;;;;27.45;18.35;;;281.70;2278.40;;;;;;5074195;28;20086;-65
2021/04/20 08:28:08;;;;;;;33.88;22.50;;;281.80;2278.40;;;;;;5072047;28;20088;-65
2021/04/20 08:30:52;;;;;;;;;;;281.80;2278.40;;;;;;5072020;28;20031;-66
2021/04/20 08:33:28;;;;;;;18.95;12.90;;;281.70;2278.40;;;;;;5057509;28;19908;-66
2021/04/20 08:35:57;;;;;;;20.45;13.80;;;281.60;2278.40;;;;;;5053535;28;20021;-66
2021/04/20 08:38:35;;;;;;;18.75;13.10;;;256.90;2252.80;;;;;;5076891;28;20136;-67
2021/04/20 08:41:18;;;;;;;20.52;14.45;;;281.70;2278.40;;;;;;5071548;28;20062;-66
2021/04/20 08:44:20;;;;;;;27.88;18.67;;;281.80;2278.40;;;;;;5078809;28;20593;-68
2021/04/20 08:47:13;;;;;;;20.20;14.13;;;281.90;2278.40;;;;;;5066730;28;20043;-67
2021/04/20 08:49:55;;;;;;;20.15;14.55;;;282.00;2278.40;;;;;;5051854;28;20511;-68
2021/04/20 08:52:51;;;;;;;22.33;16.48;;;282.10;2278.40;;;;;;5052037;28;20063;-66
2021/04/20 08:55:35;;;;;;;22.15;16.35;;;282.10;2278.40;;;;;;5056327;28;20096;-65
2021/04/20 08:58:13;;;;;;;23.10;16.75;;;282.20;2278.40;;;;;;5054676;28;20032;-66
2021/04/20 09:01:05;;;;;;;27.23;20.35;;;282.30;2278.40;;;;;;5055037;28;20028;-66
2021/04/20 09:04:12;;;;;;;42.25;28.48;;;282.40;2278.40;;;;;;5053572;28;20056;-66
2021/04/20 09:06:54;;;;;;;42.03;28.63;;;307.30;2304.00;;;;;;5048845;28;20074;-67
2021/04/20 09:09:24;;;;;;;32.17;22.23;;;307.50;2304.00;;;;;;5051548;28;20071;-66
2021/04/20 09:12:11;;;;;;;25.60;17.83;;;307.90;2304.00;;;;;;5064263;28;20027;-67
2021/04/20 09:14:42;;;;;;;18.02;13.52;;;332.90;2329.60;;;;;;5055341;28;20025;-67
2021/04/20 09:17:10;;;;;;;15.65;11.23;;;333.20;2329.60;;;;;;5066916;28;20028;-67
2021/04/20 09:19:58;;;;;;;14.43;10.98;;;333.40;2329.60;;;;;;5071920;28;20752;-67
2021/04/20 09:23:03;;;;;;;15.18;11.70;;;333.60;2329.60;;;;;;5069641;28;20044;-68
2021/04/20 09:25:35;;;;;;;15.07;11.23;;;358.40;2329.60;;;;;;5061259;28;20021;-67
2021/04/20 09:28:15;;;;;;;13.93;10.20;;;358.40;2329.60;;;;;;5053218;28;20254;-66
2021/04/20 09:30:55;;;;;;;14.95;10.93;;;333.70;2329.60;;;;;;5062801;28;20017;-67
2021/04/20 09:33:36;;;;;;;13.30;9.77;;;333.70;2329.60;;;;;;5052454;28;20025;-67
2021/04/20 09:36:02;;;;;;;12.98;10.50;;;358.40;2329.60;;;;;;5060689;28;20044;-67
2021/04/20 09:38:28;;;;;;;15.05;11.23;;;358.70;2329.60;;;;;;5057240;28;20056;-67
2021/04/20 09:40:56;;;;;;;14.05;12.13;;;359.00;2329.60;;;;;;5061330;28;20504;-68
2021/04/20 09:43:24;;;;;;;13.13;9.48;;;384.10;2278.40;;;;;;5061847;28;20104;-68
2021/04/20 09:45:57;;;;;;;11.25;9.00;;;384.50;2073.60;;;;;;5058063;28;20528;-68
2021/04/20 09:48:50;;;;;;;11.93;8.20;;;409.60;2022.40;;;;;;5067115;28;20397;-67
2021/04/20 09:51:20;;;;;;;11.98;9.75;;;410.50;1868.80;;;;;;5065642;28;20068;-65
2021/04/20 09:54:14;;;;;;;11.80;8.60;;;435.90;1843.20;;;;;;5057377;28;20100;-65
2021/04/20 09:56:46;;;;;;;11.38;8.80;;;461.70;1766.40;;;;;;5061428;28;20029;-66
2021/04/20 09:59:25;;;;;;;21.90;18.33;;;486.80;1689.60;;;;;;5050558;28;20036;-64
2021/04/20 10:02:11;;;;;;;11.13;8.85;;;512.10;1612.80;;;;;;5062571;28;20024;-65
2021/04/20 10:05:05;;;;;;;14.18;9.95;;;512.80;1587.20;;;;;;5056140;28;20037;-65
2021/04/20 10:07:49;;;;;;;13.02;9.73;;;512.80;1536.00;;;;;;5057277;28;20499;-65
2021/04/20 10:10:39;;;;;;;11.30;8.15;;;512.90;1536.00;;;;;;5061743;28;20100;-66
2021/04/20 10:13:25;;;;;;;13.27;9.60;;;512.90;1484.80;;;;;;5058877;28;20750;-68
2021/04/20 10:16:08;;;;;;;15.95;8.98;;;512.10;1561.60;;;;;;5053608;28;20473;-67
2021/04/20 10:18:59;;;;;;;11.32;8.50;;;512.00;1510.40;;;;;;5075484;28;20073;-66
2021/04/20 10:21:39;;;;;;;11.80;9.65;;;512.80;1510.40;;;;;;5088369;28;20037;-67
2021/04/20 10:24:22;;;;;;;13.75;10.40;;;512.00;1510.40;;;;;;5089996;28;20031;-66
2021/04/20 10:26:54;;;;;;;20.35;14.90;;;486.70;1638.40;;;;;;5082853;28;20029;-65
2021/04/20 10:29:31;;;;;;;24.90;17.75;;;486.80;1638.40;;;;;;5055700;28;20025;-66
2021/04/20 10:32:12;;;;;;;18.92;16.33;;;487.00;1664.00;;;;;;5066442;28;20099;-65
2021/04/20 10:34:45;;;;;;;;;;;461.50;1561.60;;;;;;5054690;28;20025;-65
2021/04/20 10:37:12;;;;;;;15.57;11.18;;;460.90;1638.40;;;;;;5062277;28;19914;-64
2021/04/20 10:39:43;;;;;;;11.70;8.82;;;460.90;1638.40;;;;;;5056496;28;20032;-64
2021/04/20 10:42:11;;;;;;;12.73;9.85;;;460.80;1638.40;;;;;;5051917;28;20025;-65
2021/04/20 10:44:38;;;;;;;8.10;6.30;;;461.10;1638.40;;;;;;5051001;28;20551;-67
2021/04/20 10:47:04;;;;;;;13.90;10.52;;;461.10;1638.40;;;;;;5050833;28;20118;-66
2021/04/20 10:49:33;;;;;;;7.68;5.90;;;461.00;1638.40;;;;;;5052505;28;20029;-65
2021/04/20 10:51:59;;;;;;;7.90;6.40;;;436.00;1638.40;;;;;;5051636;28;20481;-64
2021/04/20 10:54:35;;;;;;;7.82;6.68;;;435.40;1715.20;;;;;;5052363;28;20028;-65
2021/04/20 10:57:04;;;;;;;9.30;7.30;;;435.30;1715.20;;;;;;5052458;28;20086;-65
2021/04/20 10:59:34;;;;;;;7.25;5.88;;;410.30;1740.80;;;;;;5053956;28;20108;-64
2021/04/20 11:02:03;;;;;;;12.18;10.88;;;410.40;1715.20;;;;;;5064082;28;20111;-67
2021/04/20 11:04:34;;;;;;;8.07;6.55;;;410.40;1740.80;;;;;;5075044;28;20102;-66
2021/04/20 11:07:20;;;;;;;8.48;6.90;;;435.40;1740.80;;;;;;5071267;28;20028;-66
2021/04/20 11:09:54;;;;;;;12.65;8.20;;;435.60;1766.40;;;;;;5075111;28;20024;-66
2021/04/20 11:12:20;;;;;;;13.18;8.38;;;435.30;1689.60;;;;;;5074477;28;20032;-67
2021/04/20 11:14:51;;;;;;;8.32;5.68;;;435.50;1689.60;;;;;;5078889;28;20020;-66
2021/04/20 11:17:41;;;;;;;6.20;4.63;;;435.90;1689.60;;;;;;5062799;28;20051;-64
2021/04/20 11:20:16;;;;;;;7.30;4.60;;;436.10;1689.60;;;;;;5054109;28;20017;-68
2021/04/20 11:22:49;;;;;;;8.82;5.80;;;461.10;1664.00;;;;;;5056273;28;20254;-70
2021/04/20 11:25:31;;;;;;;7.20;4.55;;;461.30;1561.60;;;;;;5058906;28;20056;-66
2021/04/20 11:28:01;;;;;;;6.90;4.88;;;461.50;1536.00;;;;;;5057192;28;20046;-65
2021/04/20 11:30:34;;;;;;;7.20;5.18;;;486.80;1536.00;;;;;;5058510;28;20091;-65
2021/04/20 11:33:13;;;;;;;5.97;4.82;;;512.00;1459.20;;;;;;5062595;28;20500;-66
2021/04/20 11:35:45;;;;;;;7.47;5.10;;;512.50;1459.20;;;;;;5065967;28;20075;-66
2021/04/20 11:38:14;;;;;;;7.15;4.80;;;512.80;1382.40;;;;;;5058241;28;20017;-65
2021/04/20 11:40:48;;;;;;;7.85;6.07;;;512.80;1356.80;;;;;;5063325;28;20099;-67
2021/04/20 11:43:15;;;;;;;10.60;8.07;;;538.00;1408.00;;;;;;5056557;28;20465;-65
2021/04/20 11:45:44;;;;;;;11.90;10.30;;;537.90;1408.00;;;;;;5065201;28;20070;-65
2021/04/20 11:48:16;;;;;;;12.48;9.02;;;537.80;1382.40;;;;;;5063721;28;20541;-66
2021/04/20 11:50:54;;;;;;;13.93;10.65;;;537.90;1408.00;;;;;;5055897;28;20079;-65
2021/04/20 11:53:21;;;;;;;8.70;6.63;;;538.50;1382.40;;;;;;5065243;28;20071;-65
2021/04/20 11:55:49;;;;;;;9.45;6.95;;;563.30;1356.80;;;;;;5061287;28;20385;-66
2021/04/20 11:58:45;;;;;;;9.80;7.47;;;563.60;1356.80;;;;;;5057972;28;20021;-65
2021/04/20 12:01:17;;;;;;;20.90;15.30;;;563.50;1382.40;;;;;;5074443;28;20115;-65
2021/04/20 12:03:55;;;;;;;8.48;6.43;;;563.40;1356.80;;;;;;5086036;28;20036;-66
2021/04/20 12:06:22;;;;;;;9.70;7.90;;;563.30;1280.00;;;;;;5087823;28;20027;-66
2021/04/20 12:08:55;;;;;;;9.38;7.50;;;512.90;1331.20;;;;;;5067461;28;20029;-67
2021/04/20 12:11:28;;;;;;;12.02;8.98;;;512.40;1356.80;;;;;;5058281;28;20438;-66
2021/04/20 12:13:55;;;;;;;12.40;10.27;;;487.30;1408.00;;;;;;5054592;28;20511;-65
2021/04/20 12:16:23;;;;;;;14.95;10.85;;;487.00;1459.20;;;;;;5053962;28;20021;-66
2021/04/20 12:18:52;;;;;;;11.60;8.30;;;486.70;1510.40;;;;;;5057810;28;20025;-66
2021/04/20 12:21:20;;;;;;;21.52;14.95;;;486.80;1536.00;;;;;;5061691;28;20021;-65
2021/04/20 12:23:52;;;;;;;17.13;12.27;;;486.80;1536.00;;;;;;5056229;28;20017;-67
2021/04/20 12:26:18;;;;;;;10.85;8.77;;;486.60;1536.00;;;;;;5058092;28;20010;-65